LEIB/IBZ METAR and TAF weather

Enter ICAO airport designator
Station Type Date Time Source
LEIB METAR 2019/12/05 23:00 UTC NOAA

LEIB 052300Z 35004KT 9999 FEW030 12/11 Q1021 NOSIG


Station Type Date Time Source
LEIB Decoded METAR 2019/12/05 23:00 UTC NOAA

Ibiza / Es Codola, Spain (LEIB) 38-52N 001-23E 12M
Dec 05, 2019 - 06:00 PM EST / 2019.12.05 2300 UTC
Wind: from the N (350 degrees) at 5 MPH (4 KT):0
Visibility: greater than 7 mile(s):0
Sky conditions: mostly clear
Temperature: 53 F (12 C)
Dew Point: 51 F (11 C)
Relative Humidity: 93%
Pressure (altimeter): 30.15 in. Hg (1021 hPa)
ob: LEIB 052300Z 35004KT 9999 FEW030 12/11 Q1021 NOSIG
cycle: 23

Station Type Date Time Source
LEIB TAF 2019/12/05 21:32 UTC NOAA

TAF LEIB 052000Z 0521/0621 03007KT 9999 FEW020 TX17/0613Z TN09/0606Z

Example: see airport list